Time;durP1;ratioP1;P1;durP2;ratioP2;P2;SDS_P1;SDS_P2;PMS_P1;PMS_P2;Temp;Humidity;BMP_temperature;BMP_pressure;BME280_temperature;BME280_humidity;BME280_pressure;Samples;Min_cycle;Max_cycle;Signal;HPM_P1;HPM_P2
2021/05/10 00:10:24;;;;;;;7.67;3.57;;;;;;;10.32;51.20;98528.80;260638;1096;24445;-73
2021/05/10 00:52:54;;;;;;;8.60;4.20;;;;;;;9.98;52.29;98503.09;260417;1096;22826;-72
2021/05/10 01:14:00;;;;;;;7.47;4.00;;;;;;;9.40;53.16;98507.61;260521;1104;22977;-71
2021/05/10 01:35:26;;;;;;;;;;;;;;;;;;;;;
2021/05/10 01:42:20;;;;;;;5.30;3.27;;;;;;;9.66;53.07;98486.68;260385;1096;22786;-72
2021/05/10 02:10:31;;;;;;;7.27;3.93;;;;;;;9.34;53.32;98493.52;260833;1096;22769;-71
2021/05/10 02:17:34;;;;;;;4.77;3.10;;;;;;;9.27;53.63;98492.28;260574;1096;27639;-71
2021/05/10 02:31:35;;;;;;;;;;;;;;;;;;;;;
2021/05/10 02:38:28;;;;;;;5.77;3.40;;;;;;;9.07;53.78;98476.20;260963;1102;22928;-71
2021/05/10 02:52:45;;;;;;;3.65;2.30;;;;;;;9.41;53.60;98485.96;260506;1104;22782;-73
2021/05/10 03:13:52;;;;;;;4.30;3.10;;;;;;;9.30;53.40;98492.49;260247;1096;22789;-71
2021/05/10 04:17:44;;;;;;;4.95;4.30;;;;;;;10.53;54.96;98486.44;260439;1096;25848;-72
2021/05/10 04:24:18;;;;;;;7.70;5.47;;;;;;;10.56;55.44;98499.23;260497;1096;25896;-71
2021/05/10 04:31:05;;;;;;;8.20;5.60;;;;;;;10.57;56.61;98487.44;260815;1101;22773;-71
2021/05/10 04:44:53;;;;;;;7.20;4.25;;;;;;;11.03;56.94;98475.86;260830;1096;26283;-72
2021/05/10 04:51:37;;;;;;;;;;;;;;;;;;;;;
2021/05/10 05:55:29;;;;;;;3.00;2.20;;;;;;;15.26;47.89;98477.58;261281;1104;22790;-72
2021/05/10 06:16:49;;;;;;;2.20;1.80;;;;;;;16.66;44.65;98465.59;261442;1098;26111;-72
2021/05/10 06:38:05;;;;;;;3.00;1.90;;;;;;;17.68;41.65;98465.66;260980;1103;22816;-71
2021/05/10 06:45:09;;;;;;;;;;;;;;;;;;;;;
2021/05/10 06:59:33;;;;;;;2.20;1.53;;;;;;;18.54;41.15;98478.08;261036;1104;23003;-70
2021/05/10 07:05:46;;;;;;;2.40;1.60;;;;;;;18.84;41.33;98476.86;259968;1096;22777;-70
2021/05/10 07:11:29;;;;;;;;;;;;;;;;;;;;;
2021/05/10 07:17:23;;;;;;;6.50;1.90;;;;;;;19.32;40.35;98474.89;261205;1096;22744;-71
2021/05/10 07:35:29;;;;;;;1.43;0.90;;;;;;;20.26;36.61;98469.47;264595;1091;29976;-70
2021/05/10 07:40:54;;;;;;;2.25;0.75;;;;;;;20.50;37.43;98467.56;260208;1102;22851;-70
2021/05/10 07:46:20;;;;;;;4.53;0.80;;;;;;;20.78;36.40;98464.56;259474;1110;22854;-70
2021/05/10 07:51:50;;;;;;;1.13;0.90;;;;;;;21.10;36.29;98482.57;259537;1110;68263;-70
2021/05/10 07:57:06;;;;;;;1.75;0.90;;;;;;;21.30;35.71;98480.52;259497;1110;22786;-70
2021/05/10 08:02:54;;;;;;;0.70;0.60;;;;;;;21.48;35.43;98487.00;259791;1103;27231;-69
2021/05/10 08:14:26;;;;;;;1.07;0.90;;;;;;;21.74;34.04;98485.44;260358;1111;24581;-69
2021/05/10 08:25:34;;;;;;;;;;;;;;;;;;;;;
2021/05/10 08:31:12;;;;;;;2.65;1.00;;;;;;;22.19;33.96;98475.44;257608;1101;22768;-69
2021/05/10 08:36:18;;;;;;;4.25;1.08;;;;;;;22.34;32.92;98481.06;259338;1103;22782;-70
2021/05/10 08:41:31;;;;;;;0.95;0.83;;;;;;;22.48;33.26;98480.42;260296;1108;22844;-70
2021/05/10 08:47:45;;;;;;;1.58;0.90;;;;;;;22.61;33.13;98475.46;257893;1103;22922;-69
2021/05/10 08:54:37;;;;;;;1.30;1.13;;;;;;;22.70;32.59;98471.26;259915;1102;26235;-70
2021/05/10 09:07:55;;;;;;;1.65;0.80;;;;;;;23.18;32.37;98456.84;257914;1103;22767;-68
2021/05/10 09:15:14;;;;;;;1.68;1.25;;;;;;;23.39;32.46;98450.72;258479;1108;22948;-69
2021/05/10 09:28:31;;;;;;;1.28;1.10;;;;;;;23.83;31.49;98446.22;257642;1108;22826;-69
2021/05/10 09:35:31;;;;;;;2.68;1.03;;;;;;;23.90;30.78;98437.28;257581;1106;22844;-68
2021/05/10 09:42:33;;;;;;;;;;;;;;;;;;;;;
2021/05/10 09:48:37;;;;;;;3.08;1.15;;;;;;;24.43;30.77;98439.34;258357;1108;24412;-68
2021/05/10 09:54:50;;;;;;;;;;;;;;;;;;;;;
2021/05/10 10:01:32;;;;;;;;;;;;;;;;;;;;;
2021/05/10 10:08:10;;;;;;;;;;;;;;;;;;;;;
2021/05/10 10:21:18;;;;;;;1.67;1.20;;;;;;;25.70;29.74;98407.08;257473;1103;26270;-68
2021/05/10 10:34:55;;;;;;;2.05;1.20;;;;;;;26.23;28.82;98420.91;257891;1110;22767;-70
2021/05/10 10:41:47;;;;;;;;;;;;;;;;;;;;;
2021/05/10 10:48:20;;;;;;;;;;;;;;;;;;;;;
2021/05/10 10:54:44;;;;;;;1.85;1.10;;;;;;;27.20;27.74;98411.87;258190;1103;22823;-67
2021/05/10 11:00:37;;;;;;;4.05;3.60;;;;;;;27.55;27.82;98400.88;258448;1103;22836;-68
2021/05/10 11:07:14;;;;;;;0.80;0.80;;;;;;;27.74;26.87;98408.48;257884;1110;22802;-68
2021/05/10 11:13:53;;;;;;;1.43;1.10;;;;;;;27.89;26.55;98400.06;258400;1103;25936;-69
2021/05/10 11:27:19;;;;;;;0.90;0.90;;;;;;;28.05;25.83;98403.01;258279;1103;23001;-68
2021/05/10 11:34:37;;;;;;;1.45;0.80;;;;;;;27.95;24.23;98390.92;257914;1110;22851;-68
2021/05/10 11:39:57;;;;;;;1.37;1.27;;;;;;;27.59;24.13;98393.36;258718;1107;22809;-67
2021/05/10 11:45:44;;;;;;;;;;;;;;;;;;;;;
2021/05/10 11:58:21;;;;;;;0.87;0.83;;;;;;;28.61;25.75;98390.71;258655;1108;22779;-68
2021/05/10 12:04:41;;;;;;;;;;;;;;;29.13;25.89;98376.42;258855;1108;22873;-68
2021/05/10 12:17:28;;;;;;;1.33;1.20;;;;;;;28.66;22.58;98387.52;258171;1108;22874;-67
2021/05/10 12:23:23;;;;;;;2.70;1.40;;;;;;;28.22;23.19;98379.16;258997;1108;22796;-68
2021/05/10 12:29:11;;;;;;;;;;;;;;;;;;;;;
2021/05/10 12:34:49;;;;;;;1.95;1.15;;;;;;;27.94;23.94;98378.35;257912;1103;22793;-68
2021/05/10 12:40:45;;;;;;;4.80;1.10;;;;;;;28.21;24.22;98379.57;257917;1103;22810;-68
2021/05/10 12:46:42;;;;;;;3.13;1.25;;;;;;;28.43;24.41;98366.21;258225;1108;22797;-68
2021/05/10 12:53:24;;;;;;;;;;;;;;;;;;;;;
2021/05/10 12:59:48;;;;;;;2.80;1.33;;;;;;;28.72;24.01;98361.02;258016;1106;22972;-67
2021/05/10 13:06:39;;;;;;;2.73;1.58;;;;;;;28.57;23.89;98365.20;257975;1106;22786;-68
2021/05/10 13:12:44;;;;;;;3.98;1.35;;;;;;;28.35;23.65;98360.06;257489;1106;22868;-69
2021/05/10 13:18:33;;;;;;;3.67;1.23;;;;;;;28.32;24.04;98353.41;258112;1111;22797;-69
2021/05/10 13:37:21;;;;;;;;;;;;;;;;;;;;;
2021/05/10 13:49:25;;;;;;;1.45;1.30;;;;;;;28.42;24.05;98367.43;257629;1106;22816;-69
2021/05/10 14:01:23;;;;;;;3.97;1.50;;;;;;;28.21;23.23;98363.82;257913;1106;22987;-70
2021/05/10 14:06:47;;;;;;;3.05;1.30;;;;;;;28.02;23.96;98356.25;257300;1111;22785;-69
2021/05/10 14:13:06;;;;;;;1.25;1.15;;;;;;;28.07;23.84;98353.80;257563;1103;26012;-69
2021/05/10 14:31:17;;;;;;;1.40;1.30;;;;;;;27.87;23.99;98358.39;259909;1108;22810;-70
2021/05/10 14:37:07;;;;;;;1.53;1.43;;;;;;;27.81;23.89;98350.63;258560;1108;22892;-70
2021/05/10 14:42:54;;;;;;;3.28;1.68;;;;;;;27.74;24.66;98347.95;258524;1103;27278;-70
2021/05/10 14:48:36;;;;;;;2.15;1.10;;;;;;;27.70;24.86;98343.70;258816;1103;27212;-70
2021/05/10 14:55:08;;;;;;;;;;;;;;;;;;;;;
2021/05/10 15:01:45;;;;;;;;;;;;;;;;;;;;;
2021/05/10 15:07:53;;;;;;;3.23;1.37;;;;;;;27.26;26.01;98355.23;258251;1106;22836;-69
2021/05/10 15:14:11;;;;;;;;;;;;;;;;;;;;;
2021/05/10 15:21:12;;;;;;;2.25;1.50;;;;;;;27.43;26.40;98355.45;258498;1111;22854;-71
2021/05/10 15:28:16;;;;;;;1.50;1.40;;;;;;;27.87;26.32;98353.69;258868;1111;22809;-69
2021/05/10 15:35:01;;;;;;;2.70;1.67;;;;;;;28.34;25.98;98344.72;258713;1105;22822;-70
2021/05/10 15:41:12;;;;;;;1.70;1.60;;;;;;;28.71;25.80;98345.70;258140;1106;22938;-70
2021/05/10 15:46:44;;;;;;;3.93;3.10;;;;;;;28.95;25.06;98342.91;258511;1105;26011;-70
2021/05/10 15:52:53;;;;;;;2.18;1.85;;;;;;;29.05;25.05;98361.21;258945;1110;24450;-70
2021/05/10 15:58:34;;;;;;;;;;;;;;;;;;;;;
2021/05/10 16:04:49;;;;;;;;;;;;;;;;;;;;;
2021/05/10 16:11:16;;;;;;;4.47;1.80;;;;;;;28.51;25.73;98362.14;259084;1103;22808;-69
2021/05/10 16:16:47;;;;;;;2.00;1.70;;;;;;;28.20;25.53;98358.73;258287;1111;22977;-70
2021/05/10 16:22:39;;;;;;;1.88;1.53;;;;;;;27.81;25.72;98352.58;259098;1105;22812;-69
2021/05/10 16:28:17;;;;;;;2.00;1.60;;;;;;;27.46;26.32;98360.13;258452;1103;27480;-69
2021/05/10 16:34:45;;;;;;;2.98;1.70;;;;;;;27.19;26.40;98357.30;259032;1106;22880;-70
2021/05/10 16:47:42;;;;;;;;;;;;;;;;;;;;;
2021/05/10 17:01:38;;;;;;;2.80;1.90;;;;;;;26.47;27.89;98367.78;258875;1111;22826;-68
2021/05/10 17:15:30;;;;;;;3.58;2.10;;;;;;;25.96;28.19;98388.52;258446;1103;22799;-70
2021/05/10 17:22:12;;;;;;;2.95;2.03;;;;;;;25.81;29.67;98395.27;258524;1103;22809;-70
2021/05/10 17:28:45;;;;;;;3.08;1.95;;;;;;;25.35;30.63;98395.08;258772;1110;22948;-70
2021/05/10 17:41:41;;;;;;;3.25;2.23;;;;;;;24.32;32.34;98413.14;258361;1103;22813;-70
2021/05/10 17:47:48;;;;;;;;;;;;;;;;;;;;;
2021/05/10 17:53:55;;;;;;;;;;;;;;;;;;;;;
2021/05/10 17:59:51;;;;;;;6.87;2.33;;;;;;;23.12;33.91;98411.91;258978;1106;22852;-70
2021/05/10 18:12:16;;;;;;;2.05;1.85;;;;;;;22.47;35.04;98422.33;259030;1105;22797;-70
2021/05/10 18:18:25;;;;;;;2.33;1.85;;;;;;;22.13;35.58;98424.31;258205;1103;22883;-69
2021/05/10 18:31:54;;;;;;;;;;;;;;;;;;;;;
2021/05/10 18:38:23;;;;;;;4.73;2.90;;;;;;;21.06;37.11;98427.27;259005;1106;22777;-70
2021/05/10 18:45:23;;;;;;;;;;;;;;;;;;;;;
2021/05/10 18:51:33;;;;;;;5.20;3.37;;;;;;;20.35;38.43;98437.37;259036;1106;23221;-71
2021/05/10 18:57:54;;;;;;;;;;;;;;;;;;;;;
2021/05/10 19:04:31;;;;;;;;;;;;;;;;;;;;;
2021/05/10 19:10:47;;;;;;;5.00;3.40;;;;;;;19.51;39.99;98436.13;258947;1106;26255;-71
2021/05/10 19:17:07;;;;;;;;;;;;;;;;;;;;;
2021/05/10 19:23:04;;;;;;;6.20;3.20;;;;;;;19.06;40.83;98446.41;258950;1111;23019;-71
2021/05/10 19:29:36;;;;;;;;;;;;;;;;;;;;;
2021/05/10 19:35:44;;;;;;;;;;;;;;;;;;;;;
2021/05/10 19:42:04;;;;;;;8.37;4.67;;;;;;;18.42;42.60;98435.53;259159;1103;22819;-71
2021/05/10 19:48:49;;;;;;;;;;;;;;;;;;;;;
2021/05/10 20:07:08;;;;;;;;;;;;;;;;;;;;;
2021/05/10 20:13:34;;;;;;;17.90;9.45;;;;;;;17.32;45.61;98440.26;259114;1110;22964;-70
2021/05/10 20:19:26;;;;;;;11.60;7.60;;;;;;;17.16;45.93;98440.15;259084;1103;25900;-70
2021/05/10 20:25:25;;;;;;;10.75;6.10;;;;;;;17.06;46.37;98437.91;258881;1103;26480;-70
2021/05/10 20:31:54;;;;;;;;;;;;;;;;;;;;;
2021/05/10 20:38:21;;;;;;;7.55;5.40;;;;;;;17.01;46.08;98427.31;259044;1103;22806;-71
2021/05/10 20:50:30;;;;;;;;;;;;;;;;;;;;;
2021/05/10 20:56:55;;;;;;;;;;;;;;;;;;;;;
2021/05/10 21:03:29;;;;;;;;;;;;;;;;;;;;;
2021/05/10 21:09:33;;;;;;;;;;;;;;;;;;;;;
2021/05/10 21:15:47;;;;;;;5.70;3.90;;;;;;;16.95;45.36;98424.05;258620;1111;22969;-71
2021/05/10 21:21:39;;;;;;;;;;;;;;;;;;;;;
2021/05/10 21:40:35;;;;;;;5.00;2.75;;;;;;;17.33;44.02;98428.28;258484;1110;22876;-71
2021/05/10 21:46:20;;;;;;;5.15;2.40;;;;;;;17.34;44.22;98435.27;259059;1111;22864;-70
2021/05/10 21:52:53;;;;;;;;;;;;;;;;;;;;;
2021/05/10 21:58:38;;;;;;;9.80;4.35;;;;;;;17.25;43.70;98435.41;258971;1110;22952;-70
2021/05/10 22:04:23;;;;;;;5.40;3.05;;;;;;;17.17;43.87;98430.91;259127;1110;22782;-70
2021/05/10 22:11:17;;;;;;;8.20;3.00;;;;;;;17.03;44.44;98430.48;258744;1103;22849;-69
2021/05/10 22:17:04;;;;;;;;;;;;;;;;;;;;;
2021/05/10 22:23:03;;;;;;;7.60;3.60;;;;;;;16.58;44.80;98416.69;258221;1109;22961;-71
2021/05/10 22:28:31;;;;;;;;;;;;;;;16.44;45.13;98413.53;259090;1103;26647;-70
2021/05/10 22:34:32;;;;;;;;;;;;;;;;;;;;;
2021/05/10 23:19:25;;;;;;;9.25;5.15;;;;;;;15.17;48.00;98394.78;258423;1106;22897;-71
2021/05/10 23:25:17;;;;;;;12.70;6.23;;;;;;;14.98;48.29;98399.81;259040;1106;22864;-70
2021/05/10 23:30:44;;;;;;;11.97;5.70;;;;;;;14.83;48.55;98393.88;259079;1103;27613;-71
2021/05/10 23:36:44;;;;;;;10.23;5.17;;;;;;;14.73;48.74;98388.84;259003;1111;22958;-71
2021/05/10 23:43:12;;;;;;;9.07;5.03;;;;;;;14.64;48.96;98388.11;259089;1110;22841;-69
2021/05/10 23:49:39;;;;;;;8.10;4.95;;;;;;;14.53;49.43;98388.42;259021;1111;22856;-70
